Time;durP1;ratioP1;P1;durP2;ratioP2;P2;SDS_P1;SDS_P2;PMS_P1;PMS_P2;Temp;Humidity;BMP_temperature;BMP_pressure;BME280_temperature;BME280_humidity;BME280_pressure;Samples;Min_cycle;Max_cycle;Signal;HPM_P1;HPM_P2
2021/11/25 00:02:21;;;;;;;21.83;12.75;;;4.20;99.90;;;;;;5064385;28;20553;-81
2021/11/25 00:04:47;;;;;;;23.45;12.75;;;4.20;99.90;;;;;;5062062;28;20210;-81
2021/11/25 00:07:16;;;;;;;22.48;13.98;;;4.10;99.90;;;;;;5063190;28;20198;-81
2021/11/25 00:09:43;;;;;;;23.83;13.15;;;4.00;99.90;;;;;;5061270;28;20222;-81
2021/11/25 00:12:10;;;;;;;23.35;14.18;;;4.10;99.90;;;;;;5060955;28;20210;-81
2021/11/25 00:14:36;;;;;;;22.95;12.90;;;3.90;99.90;;;;;;5061945;28;20210;-81
2021/11/25 00:17:04;;;;;;;24.30;14.45;;;3.90;99.90;;;;;;5061391;28;20233;-81
2021/11/25 00:19:31;;;;;;;22.38;13.57;;;4.00;99.90;;;;;;5062548;28;20226;-81
2021/11/25 00:21:58;;;;;;;22.30;12.63;;;4.30;99.90;;;;;;5064569;28;20214;-81
2021/11/25 00:24:26;;;;;;;23.17;13.80;;;4.20;99.90;;;;;;5065192;28;20296;-81
2021/11/25 00:26:53;;;;;;;20.70;12.10;;;4.10;99.90;;;;;;5064988;28;20285;-82
2021/11/25 00:29:20;;;;;;;26.77;14.00;;;4.10;99.90;;;;;;5065450;28;20210;-83
2021/11/25 00:31:47;;;;;;;23.98;13.00;;;4.20;99.90;;;;;;5089128;22;20249;-79
2021/11/25 00:34:14;;;;;;;23.27;13.35;;;4.20;99.90;;;;;;5078732;28;20209;-79
2021/11/25 00:36:41;;;;;;;25.00;14.02;;;4.30;99.90;;;;;;5078111;28;20221;-78
2021/11/25 00:39:08;;;;;;;22.95;12.70;;;4.40;99.90;;;;;;5078710;28;20666;-78
2021/11/25 00:41:37;;;;;;;24.13;14.73;;;4.20;99.90;;;;;;5078428;28;20735;-79
2021/11/25 00:44:04;;;;;;;23.63;12.88;;;4.20;99.90;;;;;;5082217;28;20209;-78
2021/11/25 00:46:31;;;;;;;24.48;12.50;;;4.40;99.90;;;;;;5081900;28;20210;-79
2021/11/25 00:48:58;;;;;;;24.10;13.98;;;4.30;99.90;;;;;;5089934;28;20326;-79
2021/11/25 00:51:24;;;;;;;20.58;12.63;;;4.30;99.90;;;;;;5079992;28;20229;-79
2021/11/25 00:53:52;;;;;;;23.13;13.35;;;4.30;99.90;;;;;;5077893;28;20210;-78
2021/11/25 00:56:18;;;;;;;20.58;14.18;;;4.20;99.90;;;;;;5078519;28;20205;-79
2021/11/25 00:58:47;;;;;;;24.13;14.35;;;4.10;99.90;;;;;;5086201;28;20654;-79
2021/11/25 01:01:14;;;;;;;23.85;13.55;;;4.10;99.90;;;;;;5084558;28;20599;-79
2021/11/25 01:03:41;;;;;;;24.63;13.85;;;4.30;99.90;;;;;;5093123;28;20238;-79
2021/11/25 01:06:08;;;;;;;19.67;12.70;;;4.40;99.90;;;;;;5095253;28;20341;-79
2021/11/25 01:08:35;;;;;;;26.38;13.48;;;4.20;99.90;;;;;;5082072;28;20213;-79
2021/11/25 01:11:03;;;;;;;26.67;14.50;;;4.00;99.90;;;;;;5079370;28;20225;-79
2021/11/25 01:13:30;;;;;;;26.55;13.68;;;4.20;99.90;;;;;;5080423;28;20269;-78
2021/11/25 01:15:58;;;;;;;26.00;14.93;;;4.40;99.90;;;;;;5079222;28;20204;-79
2021/11/25 01:18:25;;;;;;;22.77;13.30;;;4.10;99.90;;;;;;5078084;28;20283;-79
2021/11/25 01:20:54;;;;;;;21.20;13.40;;;4.30;99.90;;;;;;5078682;28;20233;-79
2021/11/25 01:23:24;;;;;;;24.77;14.05;;;4.40;99.90;;;;;;5081263;28;20213;-79
2021/11/25 01:25:52;;;;;;;24.77;14.52;;;4.20;99.90;;;;;;5078913;28;20212;-79
2021/11/25 01:28:19;;;;;;;25.02;12.98;;;4.20;99.90;;;;;;5077975;28;20283;-78
2021/11/25 01:30:48;;;;;;;20.67;12.93;;;4.20;99.90;;;;;;5077091;28;20323;-78
2021/11/25 01:33:17;;;;;;;25.85;13.70;;;4.30;99.90;;;;;;5077589;28;20580;-79
2021/11/25 01:35:45;;;;;;;23.50;14.38;;;4.30;99.90;;;;;;5076820;28;20210;-78
2021/11/25 01:38:13;;;;;;;24.52;14.02;;;4.00;99.90;;;;;;5076496;28;20598;-78
2021/11/25 01:40:41;;;;;;;21.17;13.55;;;4.10;99.90;;;;;;5078263;28;20225;-79
2021/11/25 01:43:08;;;;;;;25.27;14.27;;;4.40;99.90;;;;;;5078538;28;20205;-79
2021/11/25 01:45:35;;;;;;;25.67;14.32;;;4.10;99.90;;;;;;5076343;28;20217;-78
2021/11/25 01:48:03;;;;;;;24.48;15.05;;;4.30;99.90;;;;;;5074917;28;20221;-80
2021/11/25 01:50:32;;;;;;;23.58;13.48;;;4.10;99.90;;;;;;5076611;28;20225;-78
2021/11/25 01:53:00;;;;;;;26.60;15.07;;;4.00;99.90;;;;;;5075873;28;20202;-78
2021/11/25 01:55:28;;;;;;;26.58;14.15;;;4.10;99.90;;;;;;5076891;28;20205;-79
2021/11/25 01:57:55;;;;;;;20.55;13.40;;;4.10;99.90;;;;;;5084143;28;20229;-79
2021/11/25 02:00:26;;;;;;;30.17;14.38;;;4.10;99.90;;;;;;5082176;28;20226;-78
2021/11/25 02:02:54;;;;;;;23.40;13.30;;;4.20;99.90;;;;;;5088769;28;20189;-77
2021/11/25 02:05:21;;;;;;;26.75;15.63;;;4.20;99.90;;;;;;5082806;28;20209;-78
2021/11/25 02:07:50;;;;;;;25.20;15.35;;;4.40;99.90;;;;;;5076745;28;20568;-78
2021/11/25 02:10:17;;;;;;;22.95;13.13;;;4.10;99.90;;;;;;5076183;28;20695;-78
2021/11/25 02:12:43;;;;;;;25.48;14.95;;;4.20;99.90;;;;;;5076154;28;20205;-79
2021/11/25 02:15:12;;;;;;;26.17;13.40;;;4.40;99.90;;;;;;5077341;28;20213;-79
2021/11/25 02:17:39;;;;;;;23.92;14.93;;;4.50;99.90;;;;;;5076844;28;20221;-79
2021/11/25 02:20:09;;;;;;;26.77;15.57;;;4.50;99.90;;;;;;5082626;28;20558;-78
2021/11/25 02:22:38;;;;;;;25.10;16.20;;;4.30;99.90;;;;;;5080678;28;20263;-78
2021/11/25 02:25:07;;;;;;;21.58;13.63;;;4.10;99.90;;;;;;5081270;28;20205;-78
2021/11/25 02:27:34;;;;;;;28.58;14.63;;;4.10;99.90;;;;;;5078803;28;20565;-79
2021/11/25 02:30:01;;;;;;;25.80;14.98;;;4.20;99.90;;;;;;5075237;28;20673;-79
2021/11/25 02:32:30;;;;;;;24.25;14.70;;;4.00;99.90;;;;;;5074399;28;20669;-78
2021/11/25 02:34:57;;;;;;;26.27;15.50;;;4.10;99.90;;;;;;5075002;28;20731;-79
2021/11/25 02:37:24;;;;;;;27.38;14.63;;;4.10;99.90;;;;;;5076059;28;20670;-79
2021/11/25 02:39:52;;;;;;;25.35;15.05;;;4.20;99.90;;;;;;5075670;28;20209;-79
2021/11/25 02:42:19;;;;;;;24.20;14.73;;;4.10;99.90;;;;;;5075436;28;20216;-78
2021/11/25 02:44:46;;;;;;;24.65;14.15;;;4.30;99.90;;;;;;5076967;28;20201;-79
2021/11/25 02:47:13;;;;;;;23.65;14.63;;;3.90;99.90;;;;;;5076636;28;20550;-78
2021/11/25 02:49:40;;;;;;;28.55;15.02;;;4.10;99.90;;;;;;5075113;28;20216;-78
2021/11/25 02:52:08;;;;;;;26.27;14.80;;;4.20;99.90;;;;;;5076846;28;20720;-78
2021/11/25 02:54:35;;;;;;;24.80;15.05;;;4.30;99.90;;;;;;5078051;28;20388;-77
2021/11/25 02:57:03;;;;;;;24.85;15.15;;;4.20;99.90;;;;;;5075000;28;20213;-78
2021/11/25 02:59:30;;;;;;;26.88;15.13;;;4.40;99.90;;;;;;5073815;28;20674;-77
2021/11/25 03:01:57;;;;;;;28.13;14.70;;;4.20;99.90;;;;;;5076716;28;20244;-79
2021/11/25 03:04:24;;;;;;;27.23;16.10;;;4.10;99.90;;;;;;5075886;28;20205;-79
2021/11/25 03:06:51;;;;;;;28.08;15.57;;;4.10;99.90;;;;;;5074563;28;20201;-78
2021/11/25 03:09:19;;;;;;;26.23;16.13;;;4.20;99.90;;;;;;5075735;28;20277;-79
2021/11/25 03:11:46;;;;;;;24.90;14.80;;;4.10;99.90;;;;;;5074273;28;20377;-78
2021/11/25 03:14:14;;;;;;;27.10;15.40;;;4.00;99.90;;;;;;5074728;28;20205;-78
2021/11/25 03:16:41;;;;;;;27.23;16.35;;;4.10;99.90;;;;;;5074983;28;20217;-78
2021/11/25 03:19:07;;;;;;;27.90;14.70;;;4.10;99.90;;;;;;5086698;28;20236;-78
2021/11/25 03:21:34;;;;;;;26.42;14.35;;;4.30;99.90;;;;;;5075478;28;20319;-78
2021/11/25 03:24:01;;;;;;;26.20;16.35;;;4.30;99.90;;;;;;5075797;28;20201;-78
2021/11/25 03:26:28;;;;;;;24.08;14.80;;;4.00;99.90;;;;;;5078385;28;20209;-78
2021/11/25 03:29:00;;;;;;;28.23;15.73;;;4.10;99.90;;;;;;5078188;28;20202;-78
2021/11/25 03:31:31;;;;;;;26.83;14.98;;;4.40;99.90;;;;;;5075638;28;20636;-78
2021/11/25 03:33:59;;;;;;;24.55;15.20;;;4.20;99.90;;;;;;5072971;28;20186;-78
2021/11/25 03:36:27;;;;;;;25.50;15.70;;;4.10;99.90;;;;;;5072782;28;20682;-78
2021/11/25 03:38:55;;;;;;;24.52;15.48;;;4.00;99.90;;;;;;5072864;28;20232;-78
2021/11/25 03:41:22;;;;;;;27.77;15.65;;;3.90;99.90;;;;;;5075246;28;20240;-79
2021/11/25 03:43:50;;;;;;;23.73;14.02;;;4.10;99.90;;;;;;5074492;28;20201;-78
2021/11/25 03:46:17;;;;;;;26.48;15.45;;;4.10;99.90;;;;;;5073606;28;20213;-78
2021/11/25 03:48:46;;;;;;;29.98;16.98;;;4.10;99.90;;;;;;5073505;28;20584;-77
2021/11/25 03:51:14;;;;;;;28.08;16.20;;;4.20;99.90;;;;;;5074144;28;20225;-79
2021/11/25 03:53:43;;;;;;;25.70;15.55;;;4.00;99.90;;;;;;5074680;28;20217;-79
2021/11/25 03:56:11;;;;;;;23.30;13.65;;;4.40;99.90;;;;;;5074866;28;20257;-78
2021/11/25 03:58:38;;;;;;;24.63;13.68;;;4.50;99.90;;;;;;5074840;28;20217;-79
2021/11/25 04:01:05;;;;;;;22.63;13.15;;;4.60;99.90;;;;;;5074614;28;20241;-79
2021/11/25 04:03:32;;;;;;;25.58;14.38;;;4.50;99.90;;;;;;5078627;28;20205;-79
2021/11/25 04:06:01;;;;;;;24.02;13.80;;;4.70;99.90;;;;;;5076206;28;20210;-79
2021/11/25 04:08:27;;;;;;;26.05;14.27;;;4.80;99.90;;;;;;5075251;28;20213;-79
2021/11/25 04:10:55;;;;;;;29.40;16.27;;;4.80;99.90;;;;;;5074505;28;20263;-79
2021/11/25 04:13:22;;;;;;;25.92;14.73;;;5.00;99.90;;;;;;5076046;28;20202;-79
2021/11/25 04:15:48;;;;;;;29.20;15.52;;;5.00;99.90;;;;;;5074222;28;20194;-79
2021/11/25 04:18:15;;;;;;;23.90;13.52;;;4.80;99.90;;;;;;5073978;28;20724;-78
2021/11/25 04:20:42;;;;;;;22.90;13.93;;;4.50;99.90;;;;;;5077500;28;20756;-79
2021/11/25 04:23:10;;;;;;;22.10;14.10;;;4.40;99.90;;;;;;5083483;28;20307;-78
2021/11/25 04:25:37;;;;;;;23.75;13.60;;;4.50;99.90;;;;;;5096347;28;20197;-78
2021/11/25 04:28:05;;;;;;;23.27;14.52;;;4.30;99.90;;;;;;5084830;28;20205;-78
2021/11/25 04:30:51;;;;;;;24.65;14.68;;;4.40;99.90;;;;;;5080431;28;20239;-78
2021/11/25 04:36:02;;;;;;;23.23;14.40;;;4.20;99.90;;;;;;5077367;28;20184;-78
2021/11/25 04:38:31;;;;;;;28.85;16.02;;;4.20;99.90;;;;;;5077679;28;20770;-77
2021/11/25 04:40:59;;;;;;;23.77;13.93;;;4.20;99.90;;;;;;5077835;28;20230;-78
2021/11/25 04:43:27;;;;;;;26.92;15.77;;;4.00;99.90;;;;;;5080765;28;20212;-79
2021/11/25 04:45:56;;;;;;;24.55;13.88;;;4.10;99.90;;;;;;5082295;28;20220;-79
2021/11/25 04:48:25;;;;;;;25.77;15.95;;;4.00;99.90;;;;;;5077657;28;20554;-78
2021/11/25 04:50:52;;;;;;;24.20;14.13;;;4.00;99.90;;;;;;5076238;28;20225;-78
2021/11/25 04:53:19;;;;;;;30.15;16.10;;;4.00;99.90;;;;;;5076777;28;20202;-78
2021/11/25 04:55:47;;;;;;;28.65;16.52;;;3.90;99.90;;;;;;5077286;28;20205;-79
2021/11/25 04:58:14;;;;;;;29.17;16.20;;;4.10;99.90;;;;;;5087911;28;20212;-78
2021/11/25 05:00:42;;;;;;;28.50;16.42;;;4.00;99.90;;;;;;5090367;28;20240;-78
2021/11/25 05:03:09;;;;;;;27.63;14.80;;;4.10;99.90;;;;;;5088556;28;20269;-78
2021/11/25 05:05:36;;;;;;;27.35;16.50;;;3.90;99.90;;;;;;5084205;28;20212;-79
2021/11/25 05:08:03;;;;;;;27.13;15.00;;;4.10;99.90;;;;;;5076529;28;20198;-77
2021/11/25 05:10:30;;;;;;;28.83;16.55;;;4.10;99.90;;;;;;5076345;28;20225;-78
2021/11/25 05:12:58;;;;;;;25.92;15.15;;;4.30;99.90;;;;;;5078527;28;20209;-78
2021/11/25 05:15:25;;;;;;;25.30;14.85;;;4.00;99.90;;;;;;5075986;28;20236;-77
2021/11/25 05:17:52;;;;;;;28.48;15.13;;;4.10;99.90;;;;;;5078047;28;20221;-78
2021/11/25 05:20:19;;;;;;;26.67;15.65;;;4.00;99.90;;;;;;5077644;28;20233;-79
2021/11/25 05:22:46;;;;;;;22.88;14.23;;;4.10;99.90;;;;;;5078509;28;20568;-78
2021/11/25 05:25:15;;;;;;;24.67;14.48;;;4.20;99.90;;;;;;5079718;28;20209;-79
2021/11/25 05:27:42;;;;;;;23.90;15.10;;;4.10;99.90;;;;;;5076836;28;20259;-77
2021/11/25 05:30:12;;;;;;;27.02;17.23;;;4.20;99.90;;;;;;5076452;28;20205;-79
2021/11/25 05:32:39;;;;;;;25.13;15.25;;;4.10;99.90;;;;;;5078424;28;20225;-77
2021/11/25 05:35:07;;;;;;;24.67;15.35;;;4.20;99.90;;;;;;5079063;28;20228;-78
2021/11/25 05:37:34;;;;;;;26.02;16.15;;;4.10;99.90;;;;;;5078081;28;20209;-78
2021/11/25 05:40:01;;;;;;;26.65;15.23;;;4.00;99.90;;;;;;5077693;28;20225;-79
2021/11/25 05:42:28;;;;;;;31.85;17.48;;;4.00;99.90;;;;;;5080120;28;20201;-78
2021/11/25 05:44:55;;;;;;;24.50;15.85;;;4.00;99.90;;;;;;5079102;28;20215;-79
2021/11/25 05:47:23;;;;;;;26.30;14.68;;;4.00;99.90;;;;;;5064612;28;20277;-78
2021/11/25 05:49:50;;;;;;;28.08;16.60;;;3.90;99.90;;;;;;5078193;28;20193;-78
2021/11/25 05:52:17;;;;;;;26.65;16.90;;;4.20;99.90;;;;;;5077140;28;20232;-78
2021/11/25 05:54:44;;;;;;;28.15;15.70;;;4.20;99.90;;;;;;5076742;28;20206;-79
2021/11/25 05:57:10;;;;;;;29.48;17.52;;;4.10;99.90;;;;;;5076427;28;20202;-78
2021/11/25 05:59:37;;;;;;;29.23;16.10;;;4.00;99.90;;;;;;5076072;28;20222;-79
2021/11/25 06:02:04;;;;;;;31.48;17.25;;;4.00;99.90;;;;;;5077583;28;20232;-79
2021/11/25 06:04:32;;;;;;;26.75;15.07;;;4.00;99.90;;;;;;5077930;28;20714;-79
2021/11/25 06:06:59;;;;;;;24.88;15.45;;;4.10;99.90;;;;;;5075882;28;20201;-78
2021/11/25 06:09:26;;;;;;;26.00;16.08;;;4.10;99.90;;;;;;5077787;28;20213;-78
2021/11/25 06:11:53;;;;;;;32.92;17.92;;;4.00;99.90;;;;;;5075663;28;20229;-78
2021/11/25 06:14:20;;;;;;;28.05;15.93;;;4.00;99.90;;;;;;5076924;28;20212;-78
2021/11/25 06:16:46;;;;;;;28.13;17.15;;;4.10;99.90;;;;;;5076443;28;20296;-77
2021/11/25 06:19:15;;;;;;;28.25;15.65;;;4.10;99.90;;;;;;5077466;28;20661;-79
2021/11/25 06:21:44;;;;;;;28.02;16.83;;;4.00;99.90;;;;;;5079263;28;20331;-78
2021/11/25 06:24:11;;;;;;;28.45;15.07;;;4.10;99.90;;;;;;5078679;28;20678;-78
2021/11/25 06:26:39;;;;;;;26.40;15.20;;;4.40;99.90;;;;;;5084899;28;20213;-77
2021/11/25 06:29:06;;;;;;;30.85;18.17;;;4.80;99.90;;;;;;5081851;28;20221;-78
2021/11/25 06:31:33;;;;;;;27.42;14.98;;;4.80;99.90;;;;;;5075616;28;20241;-78
2021/11/25 06:34:00;;;;;;;27.30;15.40;;;4.40;99.90;;;;;;5088336;22;20241;-81
2021/11/25 06:36:27;;;;;;;30.50;16.30;;;4.50;99.90;;;;;;5060369;28;20202;-81
2021/11/25 06:38:55;;;;;;;28.38;15.35;;;4.40;99.90;;;;;;5059308;28;20220;-82
2021/11/25 06:41:22;;;;;;;29.17;17.00;;;4.20;99.90;;;;;;5058912;28;20202;-82
2021/11/25 06:43:49;;;;;;;30.27;16.55;;;4.20;99.90;;;;;;5065248;28;20323;-81
2021/11/25 06:46:16;;;;;;;27.65;17.80;;;4.10;99.90;;;;;;5059979;28;20202;-82
2021/11/25 06:48:42;;;;;;;26.08;14.30;;;4.00;99.90;;;;;;5058093;28;20311;-81
2021/11/25 06:51:09;;;;;;;23.95;12.45;;;4.30;99.90;;;;;;5068901;28;20237;-82
2021/11/25 06:53:36;;;;;;;23.55;14.07;;;4.40;99.90;;;;;;5057769;28;20661;-81
2021/11/25 06:56:05;;;;;;;24.02;13.32;;;4.70;99.90;;;;;;5058305;28;20206;-82
2021/11/25 06:58:32;;;;;;;26.35;13.70;;;4.70;99.90;;;;;;5058577;28;20221;-82
2021/11/25 07:01:02;;;;;;;24.17;14.65;;;4.40;99.90;;;;;;5059164;28;20214;-81
2021/11/25 07:03:28;;;;;;;23.92;13.90;;;4.60;99.90;;;;;;5058575;28;20234;-83
2021/11/25 07:05:55;;;;;;;25.98;15.52;;;4.80;99.90;;;;;;5059140;28;20274;-80
2021/11/25 07:08:22;;;;;;;22.77;13.18;;;4.60;99.90;;;;;;5058075;28;20734;-81
2021/11/25 07:10:49;;;;;;;25.02;14.32;;;4.60;99.90;;;;;;5058080;28;20589;-80
2021/11/25 07:13:17;;;;;;;25.55;15.32;;;4.70;99.90;;;;;;5067243;28;20246;-79
2021/11/25 07:15:44;;;;;;;22.70;14.25;;;4.40;99.90;;;;;;5069772;28;20278;-80
2021/11/25 07:18:11;;;;;;;27.02;16.23;;;4.80;99.90;;;;;;5057997;28;20221;-80
2021/11/25 07:20:38;;;;;;;28.73;15.85;;;4.40;99.90;;;;;;5057560;28;20221;-80
2021/11/25 07:23:04;;;;;;;28.20;16.40;;;4.30;99.90;;;;;;5057352;28;20218;-80
2021/11/25 07:25:31;;;;;;;28.23;17.15;;;4.20;99.90;;;;;;5057044;28;20237;-79
2021/11/25 07:27:58;;;;;;;28.45;17.27;;;4.20;99.90;;;;;;5056717;28;20627;-80
2021/11/25 07:30:26;;;;;;;28.05;15.25;;;4.20;99.90;;;;;;5056027;28;20202;-80
2021/11/25 07:32:53;;;;;;;23.98;14.20;;;4.20;99.90;;;;;;5055758;28;20237;-79
2021/11/25 07:35:23;;;;;;;28.63;16.13;;;4.40;99.90;;;;;;5055066;28;20600;-80
2021/11/25 07:37:52;;;;;;;26.13;14.05;;;4.10;99.90;;;;;;5055252;28;20224;-79
2021/11/25 07:40:21;;;;;;;26.75;14.82;;;4.20;99.90;;;;;;5058193;28;20226;-81
2021/11/25 07:42:48;;;;;;;26.23;14.90;;;4.40;99.90;;;;;;5060980;28;20237;-81
2021/11/25 07:45:15;;;;;;;26.40;15.00;;;4.30;99.90;;;;;;5070780;28;20206;-81
2021/11/25 07:47:43;;;;;;;26.88;14.82;;;4.40;99.90;;;;;;5067913;28;20206;-81
2021/11/25 07:50:12;;;;;;;25.73;14.50;;;4.30;99.90;;;;;;5062111;28;20682;-80
2021/11/25 07:52:40;;;;;;;27.92;14.98;;;4.40;99.90;;;;;;5058007;28;20281;-82
2021/11/25 07:55:09;;;;;;;24.17;14.07;;;4.40;99.90;;;;;;5060012;28;20212;-79
2021/11/25 07:57:38;;;;;;;27.17;14.98;;;4.40;99.90;;;;;;5060165;28;20206;-81
2021/11/25 08:00:07;;;;;;;25.38;14.40;;;4.30;99.90;;;;;;5061047;28;20229;-78
2021/11/25 08:02:34;;;;;;;26.15;14.88;;;4.30;99.90;;;;;;5059396;28;20228;-79
2021/11/25 08:05:02;;;;;;;27.92;15.52;;;4.50;99.90;;;;;;5068659;28;20670;-78
2021/11/25 08:07:29;;;;;;;27.50;14.85;;;4.40;99.90;;;;;;5065413;28;20242;-80
2021/11/25 08:09:56;;;;;;;29.27;14.85;;;4.30;99.90;;;;;;5059209;28;20202;-80
2021/11/25 08:12:23;;;;;;;29.08;15.80;;;4.50;99.90;;;;;;5058808;28;20216;-78
2021/11/25 08:14:49;;;;;;;28.40;15.50;;;4.30;99.90;;;;;;5059865;28;20212;-80
2021/11/25 08:17:16;;;;;;;27.60;16.05;;;4.50;99.90;;;;;;5061868;28;20316;-79
2021/11/25 08:19:43;;;;;;;30.38;16.15;;;4.70;99.90;;;;;;5069872;28;20290;-78
2021/11/25 08:22:13;;;;;;;30.55;17.13;;;4.40;99.90;;;;;;5072468;28;20202;-78
2021/11/25 08:24:40;;;;;;;34.50;17.65;;;4.40;99.90;;;;;;5070471;28;20229;-78
2021/11/25 08:27:09;;;;;;;28.40;15.70;;;4.50;99.90;;;;;;5070819;28;20257;-78
2021/11/25 08:29:36;;;;;;;25.40;14.57;;;4.60;99.90;;;;;;5067605;28;20256;-79
2021/11/25 08:38:48;;;;;;;32.90;18.33;;;4.40;99.90;;;;;;5082771;28;20325;-80
2021/11/25 08:41:15;;;;;;;29.77;15.45;;;4.50;99.90;;;;;;5077671;28;20213;-76
2021/11/25 08:43:42;;;;;;;29.00;14.82;;;4.60;99.90;;;;;;5079601;28;20206;-78
2021/11/25 08:46:09;;;;;;;25.73;16.75;;;4.70;99.90;;;;;;5079964;28;20600;-78
2021/11/25 08:48:36;;;;;;;30.75;16.83;;;4.40;99.90;;;;;;5078531;28;20224;-79
2021/11/25 08:51:04;;;;;;;29.33;15.85;;;4.70;99.90;;;;;;5084931;28;20198;-78
2021/11/25 08:53:31;;;;;;;30.38;17.20;;;4.60;99.90;;;;;;5079058;28;20704;-79
2021/11/25 08:55:59;;;;;;;37.72;19.77;;;4.40;99.90;;;;;;5078448;28;20734;-79
2021/11/25 08:58:26;;;;;;;31.17;16.67;;;4.40;99.90;;;;;;5078607;28;20194;-79
2021/11/25 09:00:53;;;;;;;29.08;16.08;;;4.40;99.90;;;;;;5078681;28;20236;-79
2021/11/25 09:03:20;;;;;;;28.25;15.73;;;4.80;99.90;;;;;;5092320;28;20202;-79
2021/11/25 09:05:46;;;;;;;30.38;15.90;;;4.80;99.90;;;;;;5088289;28;20307;-79
2021/11/25 09:08:13;;;;;;;30.33;15.85;;;4.60;99.90;;;;;;5100581;22;20230;-82
2021/11/25 09:10:40;;;;;;;27.17;16.02;;;4.60;99.90;;;;;;5074531;28;20269;-82
2021/11/25 09:13:08;;;;;;;34.10;16.83;;;4.60;99.90;;;;;;5069263;28;20206;-81
2021/11/25 09:15:39;;;;;;;30.42;16.67;;;4.80;99.90;;;;;;5060864;28;20250;-82
2021/11/25 09:18:06;;;;;;;26.65;14.15;;;5.00;99.90;;;;;;5059813;28;20223;-83
2021/11/25 09:20:34;;;;;;;32.40;16.50;;;4.90;99.90;;;;;;5059586;28;20232;-82
2021/11/25 09:23:02;;;;;;;29.02;17.02;;;5.10;99.90;;;;;;5061567;28;20228;-81
2021/11/25 09:25:30;;;;;;;28.83;15.57;;;5.10;99.90;;;;;;5062290;28;20274;-82
2021/11/25 09:27:57;;;;;;;30.50;17.48;;;5.10;99.90;;;;;;5076106;28;20230;-83
2021/11/25 09:30:26;;;;;;;26.15;15.60;;;4.80;99.90;;;;;;5068187;28;20208;-82
2021/11/25 09:32:55;;;;;;;27.58;16.20;;;5.10;99.90;;;;;;5061903;28;20210;-82
2021/11/25 09:35:22;;;;;;;32.85;17.23;;;4.90;99.90;;;;;;5062206;28;20210;-82
2021/11/25 09:37:50;;;;;;;28.58;16.10;;;5.00;99.90;;;;;;5061250;28;20240;-82
2021/11/25 09:40:22;;;;;;;28.25;15.57;;;4.80;99.90;;;;;;5063514;28;20245;-82
2021/11/25 09:42:50;;;;;;;29.50;16.20;;;4.90;99.90;;;;;;5077783;28;20254;-83
2021/11/25 09:45:21;;;;;;;27.45;13.95;;;5.00;99.90;;;;;;5077491;28;20202;-83
2021/11/25 09:47:51;;;;;;;23.77;14.60;;;5.10;99.90;;;;;;5071532;28;20222;-81
2021/11/25 09:50:20;;;;;;;31.85;15.90;;;4.90;99.90;;;;;;5076810;28;20278;-82
2021/11/25 09:52:48;;;;;;;28.27;15.43;;;5.10;99.90;;;;;;5067968;28;20198;-81
2021/11/25 09:55:15;;;;;;;29.55;15.60;;;4.90;99.90;;;;;;5060420;28;20190;-80
2021/11/25 09:57:43;;;;;;;29.40;16.98;;;5.10;99.90;;;;;;5059701;28;20225;-80
2021/11/25 10:00:12;;;;;;;28.30;15.43;;;5.20;99.90;;;;;;5060108;28;20265;-80
2021/11/25 10:02:39;;;;;;;29.13;14.93;;;5.10;99.90;;;;;;5061985;28;20206;-81
2021/11/25 10:05:08;;;;;;;28.33;15.48;;;5.10;99.90;;;;;;5070741;28;20210;-80
2021/11/25 10:07:37;;;;;;;23.80;13.88;;;4.90;99.90;;;;;;5073228;28;20233;-82
2021/11/25 10:10:27;;;;;;;26.95;14.80;;;5.00;99.90;;;;;;5063069;28;20209;-81
2021/11/25 10:13:02;;;;;;;29.00;14.93;;;5.10;99.90;;;;;;5062834;28;20208;-81
2021/11/25 10:15:35;;;;;;;24.35;14.20;;;5.00;99.90;;;;;;5070768;28;20210;-82
2021/11/25 10:18:04;;;;;;;27.27;15.57;;;5.00;99.90;;;;;;5069686;28;20226;-82
2021/11/25 10:20:37;;;;;;;25.50;14.90;;;5.10;99.90;;;;;;5059786;28;20232;-82
2021/11/25 10:23:23;;;;;;;25.77;14.75;;;5.40;99.90;;;;;;5060563;28;20212;-81
2021/11/25 10:25:55;;;;;;;27.55;13.60;;;5.10;99.90;;;;;;5073576;28;20186;-82
2021/11/25 10:28:32;;;;;;;28.75;16.20;;;5.20;99.90;;;;;;5068725;28;20650;-83
2021/11/25 10:31:02;;;;;;;23.80;14.98;;;5.50;99.90;;;;;;5059776;28;20209;-84
2021/11/25 10:33:32;;;;;;;23.67;13.50;;;5.40;99.90;;;;;;5059236;28;20252;-82
2021/11/25 10:41:40;;;;;;;26.20;16.48;;;5.40;99.90;;;;;;5065174;28;20206;-82
2021/11/25 10:44:22;;;;;;;26.98;15.10;;;5.30;99.90;;;;;;5064188;28;20190;-81
2021/11/25 10:46:53;;;;;;;28.88;15.35;;;5.40;99.90;;;;;;5064469;28;20201;-83
2021/11/25 10:49:33;;;;;;;25.65;14.27;;;5.20;99.90;;;;;;5068611;28;20190;-83
2021/11/25 10:52:02;;;;;;;23.77;13.77;;;5.20;99.90;;;;;;5072270;28;20552;-83
2021/11/25 10:54:29;;;;;;;23.10;14.75;;;5.40;99.90;;;;;;5061111;28;20273;-81
2021/11/25 10:57:00;;;;;;;28.90;17.10;;;5.20;99.90;;;;;;5060018;28;20279;-83
2021/11/25 10:59:36;;;;;;;26.52;16.42;;;5.10;99.90;;;;;;5063074;28;20205;-82
2021/11/25 11:02:17;;;;;;;29.45;16.75;;;5.30;99.90;;;;;;5064629;28;20292;-83
2021/11/25 11:04:45;;;;;;;34.55;16.83;;;5.40;99.90;;;;;;5069983;28;20193;-82
2021/11/25 11:07:23;;;;;;;28.55;15.40;;;5.70;99.90;;;;;;5069556;28;20283;-82
2021/11/25 11:09:50;;;;;;;31.15;16.75;;;5.80;99.90;;;;;;5062102;28;20220;-82
2021/11/25 11:12:21;;;;;;;26.08;16.02;;;5.90;99.90;;;;;;5061100;28;20210;-83
2021/11/25 11:14:54;;;;;;;25.08;14.13;;;5.60;99.90;;;;;;5060544;28;20210;-82
2021/11/25 11:17:26;;;;;;;28.45;15.90;;;5.70;99.90;;;;;;5061471;28;20305;-83
2021/11/25 11:20:14;;;;;;;28.27;16.10;;;5.60;99.90;;;;;;5063027;28;20216;-83
2021/11/25 11:22:51;;;;;;;32.53;15.88;;;5.70;99.90;;;;;;5069960;28;20194;-83
2021/11/25 11:25:20;;;;;;;29.40;16.15;;;5.60;99.90;;;;;;5061152;28;20350;-82
2021/11/25 11:27:48;;;;;;;26.85;15.32;;;5.50;99.90;;;;;;5058520;28;20226;-82
2021/11/25 11:30:14;;;;;;;28.42;15.60;;;5.30;99.90;;;;;;5058390;28;20247;-83
2021/11/25 11:32:42;;;;;;;25.90;16.42;;;5.50;99.90;;;;;;5060333;28;20213;-80
2021/11/25 11:35:10;;;;;;;29.60;14.75;;;5.70;99.90;;;;;;5070061;28;20229;-81
2021/11/25 11:37:39;;;;;;;24.50;14.45;;;5.90;99.90;;;;;;5063524;28;20264;-82
2021/11/25 11:40:16;;;;;;;26.63;16.23;;;6.00;99.90;;;;;;5059272;28;20222;-82
2021/11/25 11:42:43;;;;;;;25.20;14.82;;;5.70;99.90;;;;;;5060815;28;20193;-83
2021/11/25 11:45:11;;;;;;;29.50;14.95;;;5.90;99.90;;;;;;5059955;28;20272;-83
2021/11/25 11:47:38;;;;;;;22.25;12.70;;;6.20;99.90;;;;;;5060408;28;20230;-83
2021/11/25 11:50:09;;;;;;;23.48;14.38;;;6.00;99.90;;;;;;5059231;28;20198;-82
2021/11/25 11:52:52;;;;;;;24.65;11.85;;;5.60;99.90;;;;;;5058856;28;20250;-82
2021/11/25 11:55:28;;;;;;;24.92;14.98;;;5.90;99.90;;;;;;5065864;28;20278;-82
2021/11/25 11:57:55;;;;;;;23.65;11.52;;;5.70;99.90;;;;;;5067238;28;20312;-85
2021/11/25 12:00:37;;;;;;;24.88;14.05;;;5.70;99.90;;;;;;5056728;28;20238;-82
2021/11/25 12:03:05;;;;;;;25.75;14.88;;;5.50;99.90;;;;;;5059645;28;20206;-83
2021/11/25 12:05:47;;;;;;;29.92;15.02;;;5.40;99.90;;;;;;5067470;28;20293;-83
2021/11/25 12:08:39;;;;;;;26.95;15.85;;;5.50;99.90;;;;;;5061565;28;20311;-82
2021/11/25 12:11:09;;;;;;;27.38;16.25;;;5.40;99.90;;;;;;5063441;28;20230;-83
2021/11/25 12:14:00;;;;;;;28.40;16.38;;;5.70;99.90;;;;;;5066968;28;20226;-82
2021/11/25 12:16:29;;;;;;;24.30;13.48;;;5.90;99.90;;;;;;5066927;28;20561;-81
2021/11/25 12:18:58;;;;;;;27.65;15.30;;;5.80;99.90;;;;;;5071161;28;20229;-83
2021/11/25 12:21:32;;;;;;;30.30;16.73;;;5.60;99.90;;;;;;5071096;28;20261;-83
2021/11/25 12:24:11;;;;;;;30.25;17.20;;;5.90;99.90;;;;;;5064078;28;20250;-82
2021/11/25 12:27:07;;;;;;;32.65;17.40;;;5.50;99.90;;;;;;5065533;28;20241;-82
2021/11/25 12:29:39;;;;;;;30.88;17.77;;;5.50;99.90;;;;;;5048192;28;20235;-83
2021/11/25 12:32:27;;;;;;;28.52;14.65;;;5.30;99.90;;;;;;5065933;28;20254;-83
2021/11/25 12:34:55;;;;;;;27.63;16.73;;;5.40;99.90;;;;;;5062533;28;20605;-83
2021/11/25 12:37:52;;;;;;;29.75;17.33;;;5.40;99.90;;;;;;5062999;28;20226;-83
2021/11/25 12:40:44;;;;;;;26.55;13.57;;;5.50;99.90;;;;;;5048493;28;20693;-82
2021/11/25 12:43:15;;;;;;;20.38;12.45;;;5.80;99.90;;;;;;5069242;28;20687;-83
2021/11/25 12:45:44;;;;;;;29.20;16.20;;;5.80;99.90;;;;;;5075081;28;20277;-81
2021/11/25 12:48:18;;;;;;;26.17;14.95;;;5.50;99.90;;;;;;5077937;28;20233;-82
2021/11/25 12:50:50;;;;;;;28.27;12.88;;;5.50;99.90;;;;;;5077288;28;20254;-82
2021/11/25 12:53:19;;;;;;;25.85;15.57;;;5.60;99.90;;;;;;5077023;28;20191;-82
2021/11/25 12:55:51;;;;;;;28.20;16.40;;;5.40;99.90;;;;;;5077502;28;20206;-80
2021/11/25 12:58:20;;;;;;;28.25;15.85;;;5.30;99.90;;;;;;5074113;28;20264;-79
2021/11/25 13:00:47;;;;;;;30.42;14.02;;;5.30;99.90;;;;;;5069742;28;20289;-80